Time;durP1;ratioP1;P1;durP2;ratioP2;P2;SDS_P1;SDS_P2;PMS_P1;PMS_P2;Temp;Humidity;BMP_temperature;BMP_pressure;BME280_temperature;BME280_humidity;BME280_pressure;Samples;Min_cycle;Max_cycle;Signal;HPM_P1;HPM_P2
2023/11/29 00:01:42;;;;;;;8.00;4.90;;;-4.50;98.40;;;;;;5110874;28;20015;-80
2023/11/29 00:04:07;;;;;;;7.25;5.05;;;-4.50;97.80;;;;;;5102902;28;20054;-82
2023/11/29 00:06:36;;;;;;;7.03;4.60;;;-4.50;97.60;;;;;;5111989;28;20542;-82
2023/11/29 00:09:02;;;;;;;12.07;6.80;;;-4.60;97.70;;;;;;5114888;28;20016;-82
2023/11/29 00:11:28;;;;;;;11.70;4.10;;;-4.50;97.80;;;;;;5116162;28;20729;-81
2023/11/29 00:13:54;;;;;;;12.13;6.00;;;-4.50;97.30;;;;;;5067882;28;20016;-81
2023/11/29 00:16:20;;;;;;;6.35;5.03;;;-4.50;97.40;;;;;;5114306;28;20030;-82
2023/11/29 00:18:46;;;;;;;8.38;5.10;;;-4.40;97.40;;;;;;5109682;28;20455;-83
2023/11/29 00:21:11;;;;;;;9.40;6.05;;;-4.40;97.30;;;;;;5114358;28;20473;-82
2023/11/29 00:23:37;;;;;;;9.40;5.85;;;-4.40;97.30;;;;;;5111218;28;20494;-81
2023/11/29 00:26:03;;;;;;;10.02;5.85;;;-4.30;97.40;;;;;;5129971;28;20020;-82
2023/11/29 00:28:29;;;;;;;11.73;6.55;;;-4.30;97.10;;;;;;5134569;28;20019;-81
2023/11/29 00:30:55;;;;;;;6.22;3.63;;;-4.30;96.80;;;;;;5118204;28;20016;-81
2023/11/29 00:33:21;;;;;;;7.55;5.03;;;-4.30;97.00;;;;;;5095527;28;20034;-82
2023/11/29 00:35:46;;;;;;;7.18;4.50;;;-4.30;96.80;;;;;;5112232;28;20020;-81
2023/11/29 00:38:12;;;;;;;8.65;4.63;;;-4.30;96.70;;;;;;5101259;28;20058;-80
2023/11/29 00:40:38;;;;;;;6.45;4.15;;;-4.30;96.70;;;;;;5119615;28;20028;-80
2023/11/29 00:43:04;;;;;;;6.15;4.85;;;-4.30;96.50;;;;;;5124922;28;20038;-81
2023/11/29 00:45:30;;;;;;;6.80;4.85;;;-4.20;96.90;;;;;;5113866;28;20102;-79
2023/11/29 00:47:55;;;;;;;7.82;4.97;;;-4.20;96.70;;;;;;5108254;28;20532;-81
2023/11/29 00:50:21;;;;;;;6.30;4.22;;;-4.10;96.50;;;;;;5101872;28;20495;-80
2023/11/29 00:52:47;;;;;;;8.88;5.18;;;-4.20;96.10;;;;;;5094064;28;20062;-81
2023/11/29 00:55:13;;;;;;;5.95;4.95;;;-4.20;96.30;;;;;;5106293;28;20580;-80
2023/11/29 00:57:39;;;;;;;7.55;5.05;;;-4.30;96.40;;;;;;5106803;28;20046;-82
2023/11/29 01:00:05;;;;;;;9.57;5.72;;;-4.20;96.60;;;;;;5098711;28;20099;-83
2023/11/29 01:02:31;;;;;;;9.52;5.68;;;-4.10;96.40;;;;;;5112634;28;20034;-80
2023/11/29 01:04:57;;;;;;;9.07;5.38;;;-4.10;96.80;;;;;;5112303;28;20019;-80
2023/11/29 01:07:23;;;;;;;9.55;6.40;;;-4.00;96.60;;;;;;5112928;28;20028;-82
2023/11/29 01:09:48;;;;;;;7.93;5.03;;;-3.90;96.60;;;;;;5114183;28;20474;-82
2023/11/29 01:12:14;;;;;;;6.05;3.97;;;-3.90;96.10;;;;;;5130349;28;20027;-79
2023/11/29 01:14:40;;;;;;;10.43;5.82;;;-4.10;95.90;;;;;;5130489;28;20046;-81
2023/11/29 01:17:06;;;;;;;10.20;6.78;;;-4.20;96.10;;;;;;5113479;28;20032;-80
2023/11/29 01:19:32;;;;;;;8.68;5.18;;;-4.30;96.20;;;;;;5129985;28;20039;-82
2023/11/29 01:21:59;;;;;;;8.98;6.15;;;-4.30;96.30;;;;;;5117712;28;20047;-81
2023/11/29 01:24:25;;;;;;;6.68;3.63;;;-4.20;96.50;;;;;;5117328;28;20393;-80
2023/11/29 01:26:50;;;;;;;10.05;5.25;;;-4.20;96.50;;;;;;5116477;28;20106;-81
2023/11/29 01:29:16;;;;;;;7.18;4.85;;;-4.30;96.50;;;;;;5116781;28;20047;-81
2023/11/29 01:31:42;;;;;;;9.75;6.03;;;-4.20;96.70;;;;;;5117276;28;20065;-81
2023/11/29 01:34:08;;;;;;;7.78;4.82;;;-4.30;96.60;;;;;;5099181;28;20028;-81
2023/11/29 01:36:34;;;;;;;7.40;4.93;;;-4.40;96.60;;;;;;5098270;28;20035;-82
2023/11/29 01:39:00;;;;;;;12.07;6.43;;;-4.30;96.90;;;;;;5115039;28;20488;-80
2023/11/29 01:41:26;;;;;;;9.82;6.88;;;-4.30;97.00;;;;;;5116394;28;20056;-82
2023/11/29 01:43:52;;;;;;;9.88;5.95;;;-4.30;97.10;;;;;;5115830;28;20043;-82
2023/11/29 01:46:18;;;;;;;10.48;5.53;;;-4.20;97.20;;;;;;5116009;28;20026;-81
2023/11/29 01:48:44;;;;;;;11.98;5.80;;;-4.20;97.00;;;;;;5098705;28;20024;-79
2023/11/29 01:51:10;;;;;;;7.65;5.13;;;-4.20;96.90;;;;;;5117900;28;20099;-80
2023/11/29 01:53:37;;;;;;;10.13;6.47;;;-4.20;96.80;;;;;;5116049;28;20028;-81
2023/11/29 01:56:03;;;;;;;8.02;5.43;;;-4.20;96.90;;;;;;5096389;28;20027;-81
2023/11/29 01:58:29;;;;;;;7.65;5.03;;;-4.10;97.00;;;;;;5115766;28;20500;-80
2023/11/29 02:00:56;;;;;;;8.45;5.20;;;-4.10;96.80;;;;;;5115738;28;20035;-81
2023/11/29 02:03:22;;;;;;;10.07;5.78;;;-4.20;96.70;;;;;;5097238;28;20069;-82
2023/11/29 02:05:48;;;;;;;8.23;5.57;;;-4.10;96.80;;;;;;5115568;28;20060;-81
2023/11/29 02:08:15;;;;;;;6.63;5.15;;;-4.10;96.70;;;;;;5115383;28;20063;-81
2023/11/29 02:10:41;;;;;;;8.18;3.58;;;-4.10;96.80;;;;;;5115500;28;20520;-81
2023/11/29 02:13:07;;;;;;;9.90;6.10;;;-4.10;96.30;;;;;;5114231;27;20473;-79
2023/11/29 02:15:33;;;;;;;9.32;6.00;;;-4.20;96.10;;;;;;5115412;28;20069;-81
2023/11/29 02:17:59;;;;;;;7.97;4.97;;;-4.20;96.40;;;;;;5114956;28;20080;-81
2023/11/29 02:20:26;;;;;;;9.32;5.18;;;-4.20;96.40;;;;;;5107598;28;20034;-81
2023/11/29 02:23:16;;;;;;;8.63;3.78;;;-4.20;96.30;;;;;;5108915;28;20081;-82
2023/11/29 02:25:42;;;;;;;8.07;4.95;;;-4.20;96.30;;;;;;5104096;28;20020;-80
2023/11/29 02:28:08;;;;;;;9.90;5.70;;;-4.10;96.40;;;;;;5115320;28;20068;-81
2023/11/29 02:30:33;;;;;;;12.90;5.53;;;-4.00;96.40;;;;;;5114243;28;20104;-80
2023/11/29 02:32:59;;;;;;;7.25;5.35;;;-4.10;96.20;;;;;;5105573;28;20020;-81
2023/11/29 02:35:25;;;;;;;7.55;5.47;;;-4.10;95.80;;;;;;5109422;28;20099;-80
2023/11/29 02:37:51;;;;;;;9.18;6.10;;;-4.20;95.80;;;;;;5107861;28;20054;-81
2023/11/29 02:40:17;;;;;;;8.02;5.82;;;-4.20;95.80;;;;;;5107586;28;20027;-80
2023/11/29 02:42:42;;;;;;;10.18;5.47;;;-4.20;95.70;;;;;;5091802;28;20031;-80
2023/11/29 02:45:09;;;;;;;8.15;5.05;;;-4.10;95.70;;;;;;5095263;28;20401;-80
2023/11/29 02:47:34;;;;;;;13.80;7.57;;;-4.20;95.40;;;;;;5090345;28;20047;-81
2023/11/29 02:50:00;;;;;;;10.52;5.97;;;-4.20;95.40;;;;;;5107857;28;20016;-81
2023/11/29 02:52:26;;;;;;;9.70;5.85;;;-4.20;95.60;;;;;;5124320;28;20023;-81
2023/11/29 02:54:52;;;;;;;7.28;5.72;;;-4.10;95.50;;;;;;5118240;28;20069;-82
2023/11/29 02:57:17;;;;;;;12.05;6.78;;;-4.10;95.20;;;;;;5125291;28;20035;-81
2023/11/29 02:59:45;;;;;;;11.45;6.20;;;-4.20;95.10;;;;;;5083005;28;20043;-82
2023/11/29 03:02:13;;;;;;;9.85;6.40;;;-4.20;95.00;;;;;;5099151;28;20023;-81
2023/11/29 03:04:39;;;;;;;8.70;6.53;;;-4.20;95.10;;;;;;5117877;28;20358;-80
2023/11/29 03:07:05;;;;;;;8.48;6.07;;;-4.20;95.20;;;;;;5118570;28;20098;-81
2023/11/29 03:09:31;;;;;;;10.50;5.33;;;-4.10;95.30;;;;;;5114540;28;20030;-82
2023/11/29 03:11:57;;;;;;;7.60;6.13;;;-4.10;95.10;;;;;;5106586;28;20020;-81
2023/11/29 03:14:25;;;;;;;8.88;7.00;;;-4.10;94.60;;;;;;5093796;28;20032;-80
2023/11/29 03:16:51;;;;;;;9.27;7.47;;;-4.20;94.80;;;;;;5081539;28;20038;-81
2023/11/29 03:19:17;;;;;;;13.85;7.43;;;-4.20;95.00;;;;;;5095735;28;20469;-83
2023/11/29 03:21:43;;;;;;;8.82;6.60;;;-4.10;95.10;;;;;;5080898;28;20102;-82
2023/11/29 03:24:09;;;;;;;13.43;7.47;;;-4.00;95.10;;;;;;5113972;28;20030;-81
2023/11/29 03:26:41;;;;;;;12.07;7.40;;;-3.90;95.10;;;;;;5114073;28;20019;-82
2023/11/29 03:29:07;;;;;;;12.15;7.68;;;-3.90;95.00;;;;;;5096540;28;20019;-82
2023/11/29 03:31:33;;;;;;;12.88;7.40;;;-4.00;94.90;;;;;;5100183;28;20019;-81
2023/11/29 03:33:59;;;;;;;12.60;6.57;;;-4.00;94.90;;;;;;5120904;28;20054;-82
2023/11/29 03:36:24;;;;;;;11.25;6.80;;;-4.00;94.70;;;;;;5120759;28;20138;-80
2023/11/29 03:38:50;;;;;;;14.05;7.03;;;-4.00;94.70;;;;;;5113428;28;20035;-80
2023/11/29 03:41:16;;;;;;;13.13;8.30;;;-4.10;94.70;;;;;;5112686;28;20044;-80
2023/11/29 03:43:42;;;;;;;12.60;6.70;;;-4.10;94.50;;;;;;5126033;28;20091;-81
2023/11/29 03:46:07;;;;;;;14.23;8.55;;;-4.10;94.60;;;;;;5123223;28;20022;-82
2023/11/29 03:48:33;;;;;;;12.45;7.80;;;-4.10;94.70;;;;;;5103538;28;20063;-80
2023/11/29 03:51:02;;;;;;;12.05;7.55;;;-4.00;94.80;;;;;;5118601;28;20454;-81
2023/11/29 03:53:28;;;;;;;11.32;7.35;;;-4.00;94.90;;;;;;5094347;28;20075;-81
2023/11/29 03:55:54;;;;;;;11.05;8.38;;;-3.90;94.80;;;;;;5113535;28;20024;-81
2023/11/29 03:58:20;;;;;;;11.73;8.38;;;-3.90;94.70;;;;;;5114320;28;20477;-81
2023/11/29 04:00:46;;;;;;;11.77;6.65;;;-3.90;94.70;;;;;;5113663;28;20080;-81
2023/11/29 04:03:12;;;;;;;10.98;7.38;;;-3.90;94.70;;;;;;5113147;28;20104;-82
2023/11/29 04:05:38;;;;;;;8.95;7.05;;;-4.00;94.50;;;;;;5113083;28;20464;-81
2023/11/29 04:08:04;;;;;;;9.75;7.63;;;-4.00;94.40;;;;;;5113858;28;20027;-82
2023/11/29 04:10:33;;;;;;;9.77;7.07;;;-4.00;94.50;;;;;;5112403;28;20390;-83
2023/11/29 04:13:00;;;;;;;12.90;6.95;;;-4.10;94.50;;;;;;5099348;28;20385;-81
2023/11/29 04:15:26;;;;;;;11.50;8.20;;;-4.00;94.50;;;;;;5097699;28;20472;-81
2023/11/29 04:17:52;;;;;;;12.70;8.00;;;-4.10;94.40;;;;;;5096987;28;20452;-82
2023/11/29 04:20:18;;;;;;;11.70;7.72;;;-4.10;94.60;;;;;;5095920;28;20023;-80
2023/11/29 04:22:47;;;;;;;9.68;7.05;;;-4.10;94.70;;;;;;5103471;28;20036;-81
2023/11/29 04:25:13;;;;;;;11.50;7.50;;;-4.00;94.70;;;;;;5102176;28;20016;-82
2023/11/29 04:27:38;;;;;;;10.80;7.68;;;-4.10;94.60;;;;;;5112283;28;20023;-83
2023/11/29 04:30:05;;;;;;;13.25;8.55;;;-4.10;94.60;;;;;;5113271;28;20031;-81
2023/11/29 04:32:31;;;;;;;11.40;7.90;;;-4.20;94.50;;;;;;5112794;28;20098;-80
2023/11/29 04:34:57;;;;;;;12.68;6.35;;;-4.30;94.40;;;;;;5112977;28;20445;-82
2023/11/29 04:37:22;;;;;;;11.18;6.97;;;-4.40;94.40;;;;;;5112755;28;20112;-82
2023/11/29 04:39:48;;;;;;;6.93;4.78;;;-4.50;94.30;;;;;;5117497;28;20035;-80
2023/11/29 04:42:14;;;;;;;13.45;8.40;;;-4.60;94.20;;;;;;5123333;28;20037;-82
2023/11/29 04:44:40;;;;;;;14.00;8.02;;;-4.70;94.40;;;;;;5112191;28;20044;-84
2023/11/29 04:47:06;;;;;;;12.32;8.93;;;-4.70;94.60;;;;;;5113863;28;20031;-83
2023/11/29 04:49:32;;;;;;;12.85;8.35;;;-4.70;94.70;;;;;;5114337;28;20099;-83
2023/11/29 04:51:58;;;;;;;13.70;8.02;;;-4.70;94.80;;;;;;5112467;28;20020;-83
2023/11/29 04:54:23;;;;;;;16.55;9.93;;;-4.80;94.30;;;;;;5094489;28;20024;-81
2023/11/29 04:56:50;;;;;;;15.90;11.70;;;-4.80;94.40;;;;;;5116173;28;20019;-82
2023/11/29 04:59:15;;;;;;;15.25;11.18;;;-4.90;94.60;;;;;;5116588;28;20032;-82
2023/11/29 05:01:41;;;;;;;18.77;11.50;;;-4.80;94.80;;;;;;5115820;27;20529;-82
2023/11/29 05:04:07;;;;;;;15.85;9.70;;;-4.80;94.90;;;;;;5116691;28;20077;-83
2023/11/29 05:06:33;;;;;;;20.75;13.90;;;-4.70;95.00;;;;;;5098164;28;20016;-82
2023/11/29 05:08:59;;;;;;;19.80;11.75;;;-4.70;94.90;;;;;;5116856;28;20032;-83
2023/11/29 05:11:25;;;;;;;16.38;10.48;;;-4.70;94.90;;;;;;5116878;28;20027;-82
2023/11/29 05:13:50;;;;;;;19.55;12.35;;;-4.80;94.90;;;;;;5117372;28;20103;-82
2023/11/29 05:16:16;;;;;;;18.98;10.75;;;-4.80;95.00;;;;;;5115245;28;20384;-82
2023/11/29 05:18:42;;;;;;;21.20;12.40;;;-4.90;95.00;;;;;;5102808;27;20028;-81
2023/11/29 05:21:08;;;;;;;18.58;11.85;;;-4.90;95.10;;;;;;5107760;28;20110;-82
2023/11/29 05:23:34;;;;;;;17.98;12.02;;;-4.90;95.20;;;;;;5112926;28;20114;-82
2023/11/29 05:26:00;;;;;;;20.60;11.23;;;-5.00;95.30;;;;;;5112677;28;20023;-81
2023/11/29 05:28:29;;;;;;;18.27;11.63;;;-5.00;95.30;;;;;;5096438;28;20505;-82
2023/11/29 05:30:55;;;;;;;20.33;12.65;;;-5.00;95.30;;;;;;5113329;28;20042;-81
2023/11/29 05:33:23;;;;;;;19.98;12.23;;;-5.00;95.40;;;;;;5116374;28;20027;-80
2023/11/29 05:35:49;;;;;;;19.75;11.57;;;-5.00;95.40;;;;;;5087282;28;20023;-81
2023/11/29 05:38:15;;;;;;;20.48;12.32;;;-5.00;95.30;;;;;;5097026;28;20054;-83
2023/11/29 05:40:41;;;;;;;21.08;11.93;;;-5.00;95.40;;;;;;5112699;28;20024;-80
2023/11/29 05:43:07;;;;;;;18.77;11.73;;;-5.00;95.50;;;;;;5116171;28;20496;-82
2023/11/29 05:45:33;;;;;;;19.65;11.38;;;-5.00;95.50;;;;;;5101980;28;20028;-83
2023/11/29 05:47:59;;;;;;;20.35;12.90;;;-5.00;95.60;;;;;;5113811;28;20020;-80
2023/11/29 05:50:25;;;;;;;22.83;12.27;;;-5.00;95.60;;;;;;5122803;28;20027;-82
2023/11/29 05:52:51;;;;;;;21.48;12.63;;;-5.00;95.60;;;;;;5122532;28;20020;-83
2023/11/29 05:55:17;;;;;;;21.67;13.00;;;-5.00;95.70;;;;;;5130374;28;20087;-81
2023/11/29 05:57:45;;;;;;;22.77;12.15;;;-5.00;95.70;;;;;;5108179;28;20036;-84
2023/11/29 06:00:11;;;;;;;21.33;13.27;;;-5.00;95.80;;;;;;5116207;28;20019;-82
2023/11/29 06:02:38;;;;;;;24.03;14.37;;;-5.00;95.80;;;;;;5117206;28;20028;-81
2023/11/29 06:05:04;;;;;;;21.65;12.05;;;-5.00;95.80;;;;;;5117495;28;20102;-82
2023/11/29 06:07:35;;;;;;;25.25;14.52;;;-4.90;95.80;;;;;;5096234;28;20023;-81
2023/11/29 06:10:01;;;;;;;21.42;13.45;;;-4.90;95.90;;;;;;5097451;28;20050;-81
2023/11/29 06:12:27;;;;;;;20.73;13.52;;;-4.90;95.80;;;;;;5115709;28;20388;-82
2023/11/29 06:14:53;;;;;;;24.10;11.95;;;-4.80;95.90;;;;;;5118215;28;20024;-81
2023/11/29 06:17:19;;;;;;;23.20;12.73;;;-4.70;96.00;;;;;;5121347;28;20480;-81
2023/11/29 06:19:45;;;;;;;24.45;14.00;;;-4.60;96.00;;;;;;5098645;28;20032;-81
2023/11/29 06:22:14;;;;;;;22.63;12.65;;;-4.40;96.00;;;;;;5089577;28;20389;-82
2023/11/29 06:24:40;;;;;;;20.38;12.63;;;-4.30;95.90;;;;;;5108546;28;20042;-81
2023/11/29 06:27:06;;;;;;;24.85;12.98;;;-4.20;95.90;;;;;;5119551;28;20032;-81
2023/11/29 06:29:32;;;;;;;21.42;12.82;;;-4.10;95.60;;;;;;5121070;28;20464;-81
2023/11/29 06:31:58;;;;;;;24.17;13.13;;;-4.00;95.60;;;;;;5097489;28;20053;-83
2023/11/29 06:34:23;;;;;;;20.33;13.13;;;-4.00;95.40;;;;;;5115823;28;20499;-81
2023/11/29 06:36:50;;;;;;;21.50;14.27;;;-3.90;95.40;;;;;;5123141;28;20046;-81
2023/11/29 06:39:19;;;;;;;19.17;11.68;;;-3.80;95.30;;;;;;5125480;27;20474;-83
2023/11/29 06:41:47;;;;;;;23.42;13.05;;;-3.70;95.10;;;;;;5117615;28;20049;-82
2023/11/29 06:44:13;;;;;;;31.35;13.93;;;-3.60;95.00;;;;;;5098134;28;20055;-81
2023/11/29 06:46:39;;;;;;;22.20;14.40;;;-3.60;94.80;;;;;;5116281;28;20107;-82
2023/11/29 06:49:11;;;;;;;22.55;13.00;;;-3.50;94.60;;;;;;5117759;28;20023;-82
2023/11/29 06:51:38;;;;;;;20.35;12.18;;;-3.60;94.30;;;;;;5127624;28;20027;-81
2023/11/29 06:54:05;;;;;;;21.42;12.93;;;-3.60;94.40;;;;;;5123919;28;20034;-82
2023/11/29 06:56:31;;;;;;;14.10;10.23;;;-3.50;94.50;;;;;;5109667;27;20024;-81
2023/11/29 06:58:57;;;;;;;24.02;14.45;;;-3.50;94.40;;;;;;5114525;28;20283;-81
2023/11/29 07:01:23;;;;;;;23.73;12.63;;;-3.50;94.30;;;;;;5114404;28;20016;-82
2023/11/29 07:03:49;;;;;;;23.57;12.97;;;-3.40;94.40;;;;;;5095968;28;20038;-82
2023/11/29 07:06:22;;;;;;;22.02;12.13;;;-3.40;94.30;;;;;;5114030;28;20644;-80
2023/11/29 07:08:49;;;;;;;21.35;12.13;;;-3.30;94.10;;;;;;5104190;28;20450;-82
2023/11/29 07:11:15;;;;;;;23.90;14.50;;;-3.30;94.00;;;;;;5090572;28;20024;-81
2023/11/29 07:13:41;;;;;;;23.13;12.40;;;-3.30;93.70;;;;;;5114334;28;20035;-81
2023/11/29 07:16:09;;;;;;;20.27;12.80;;;-3.40;93.70;;;;;;5114086;28;20020;-81
2023/11/29 07:18:34;;;;;;;;;;;-3.40;93.90;;;;;;5099272;28;20062;-82
2023/11/29 07:21:00;;;;;;;16.00;10.80;;;-3.30;94.00;;;;;;5114134;28;19990;-82
2023/11/29 07:23:26;;;;;;;17.85;11.75;;;-3.30;93.80;;;;;;5096159;28;20023;-82
2023/11/29 07:25:52;;;;;;;18.73;13.32;;;-3.30;93.70;;;;;;5121552;28;20023;-81
2023/11/29 07:28:17;;;;;;;16.83;11.35;;;-3.30;93.80;;;;;;5103935;28;20043;-82
2023/11/29 07:30:43;;;;;;;20.58;11.80;;;-3.30;94.00;;;;;;5095318;28;20031;-82
2023/11/29 07:33:10;;;;;;;19.33;11.25;;;-3.30;94.10;;;;;;5113518;28;20027;-81
2023/11/29 07:35:36;;;;;;;22.05;12.40;;;-3.20;94.20;;;;;;5113575;28;20023;-82
2023/11/29 07:38:01;;;;;;;20.58;11.38;;;-3.10;94.10;;;;;;5113145;28;20032;-81
2023/11/29 07:40:27;;;;;;;21.98;12.80;;;-3.00;94.10;;;;;;5113104;28;20427;-82
2023/11/29 07:42:53;;;;;;;22.65;14.57;;;-2.90;94.10;;;;;;5113084;28;20163;-83
2023/11/29 07:45:19;;;;;;;22.92;12.60;;;-2.80;94.00;;;;;;5111200;28;20063;-81
2023/11/29 07:47:45;;;;;;;23.25;13.45;;;-2.80;94.00;;;;;;5113379;28;20061;-82
2023/11/29 07:50:14;;;;;;;20.73;11.75;;;-2.80;93.60;;;;;;5095226;28;20438;-82
2023/11/29 07:52:43;;;;;;;17.95;11.43;;;-2.90;93.60;;;;;;5113514;28;20438;-82
2023/11/29 07:55:09;;;;;;;19.65;12.15;;;-2.80;93.60;;;;;;5114277;28;20016;-80
2023/11/29 07:57:35;;;;;;;23.23;13.32;;;-2.90;93.40;;;;;;5114005;28;20412;-80
2023/11/29 08:00:05;;;;;;;20.90;12.88;;;-3.00;93.40;;;;;;5113996;28;20019;-82
2023/11/29 08:02:31;;;;;;;16.38;11.48;;;-3.00;93.60;;;;;;5112560;28;20022;-82
2023/11/29 08:04:59;;;;;;;19.02;11.82;;;-3.10;93.50;;;;;;5094744;28;20463;-81
2023/11/29 08:07:25;;;;;;;20.02;13.23;;;-3.10;93.60;;;;;;5105451;28;20016;-82
2023/11/29 08:09:50;;;;;;;33.33;12.70;;;-3.30;93.50;;;;;;5113117;28;20031;-83
2023/11/29 08:12:17;;;;;;;19.88;12.45;;;-3.30;93.60;;;;;;5094866;28;20020;-81
2023/11/29 08:14:43;;;;;;;27.70;13.82;;;-3.20;93.90;;;;;;5113935;28;20114;-82
2023/11/29 08:17:09;;;;;;;20.77;13.30;;;-3.10;94.00;;;;;;5100628;28;20593;-81
2023/11/29 08:19:34;;;;;;;22.65;13.80;;;-3.10;94.00;;;;;;5096815;28;20020;-83
2023/11/29 08:22:02;;;;;;;25.80;14.73;;;-3.00;94.10;;;;;;5094319;28;20049;-83
2023/11/29 08:24:29;;;;;;;28.27;15.23;;;-3.00;94.10;;;;;;5081451;28;20020;-81
2023/11/29 08:26:55;;;;;;;21.52;14.23;;;-3.10;94.00;;;;;;5111642;28;20024;-82
2023/11/29 08:29:21;;;;;;;38.22;13.80;;;-3.10;94.50;;;;;;5111145;28;20022;-83
2023/11/29 08:31:47;;;;;;;23.58;15.07;;;-3.00;94.40;;;;;;5113160;28;20019;-82
2023/11/29 08:34:13;;;;;;;21.55;14.98;;;-3.00;94.30;;;;;;5113140;28;20024;-81
2023/11/29 08:36:39;;;;;;;22.73;15.05;;;-3.10;94.20;;;;;;5114643;28;20436;-82
2023/11/29 08:39:06;;;;;;;25.88;14.30;;;-3.10;94.50;;;;;;5120294;28;20042;-82
2023/11/29 08:41:32;;;;;;;25.15;14.15;;;-3.10;94.60;;;;;;5097169;28;20054;-83
2023/11/29 08:43:58;;;;;;;21.90;13.90;;;-3.00;94.70;;;;;;5096429;28;20470;-82
2023/11/29 08:46:23;;;;;;;24.23;14.13;;;-3.00;94.70;;;;;;5093598;28;20099;-84
2023/11/29 08:48:49;;;;;;;26.20;16.27;;;-2.90;94.90;;;;;;5112551;28;20076;-82
2023/11/29 08:51:16;;;;;;;24.65;13.95;;;-2.90;94.60;;;;;;5112646;28;20053;-84
2023/11/29 08:53:42;;;;;;;26.30;15.50;;;-2.80;94.60;;;;;;5112739;28;20015;-83
2023/11/29 08:56:18;;;;;;;28.30;15.10;;;-2.80;94.60;;;;;;5113653;28;20016;-82
2023/11/29 08:58:47;;;;;;;27.38;16.77;;;-2.80;94.70;;;;;;5105278;28;20200;-82
2023/11/29 09:01:16;;;;;;;31.35;15.65;;;-2.80;94.60;;;;;;5118338;28;20030;-82
2023/11/29 09:03:42;;;;;;;33.78;16.80;;;-2.80;94.70;;;;;;5112866;28;20028;-81
2023/11/29 09:06:08;;;;;;;22.63;13.35;;;-2.80;94.60;;;;;;5095611;28;20024;-82
2023/11/29 09:08:34;;;;;;;22.55;15.30;;;-2.80;94.70;;;;;;5114203;28;20483;-82
2023/11/29 09:11:00;;;;;;;29.17;17.63;;;-2.70;94.80;;;;;;5114110;28;20020;-81
2023/11/29 09:13:26;;;;;;;30.15;18.48;;;-2.90;94.70;;;;;;5113827;28;20024;-82
2023/11/29 09:15:52;;;;;;;25.10;15.93;;;-3.00;95.00;;;;;;5094177;28;20100;-82
2023/11/29 09:18:18;;;;;;;38.40;20.30;;;-3.00;95.10;;;;;;5112288;28;20453;-83
2023/11/29 09:20:44;;;;;;;30.92;17.77;;;-2.90;95.30;;;;;;5092348;28;20036;-84
2023/11/29 09:23:10;;;;;;;32.38;17.33;;;-2.90;95.40;;;;;;5093812;28;20068;-82
2023/11/29 09:25:36;;;;;;;30.15;16.58;;;-2.90;95.40;;;;;;5112456;28;20019;-82
2023/11/29 09:28:06;;;;;;;24.40;16.05;;;-2.80;95.40;;;;;;5112395;28;20020;-82
2023/11/29 09:30:33;;;;;;;27.25;17.13;;;-2.80;95.40;;;;;;5115224;28;20125;-80
2023/11/29 09:32:58;;;;;;;32.17;16.97;;;-2.70;95.40;;;;;;5116493;28;20016;-80
2023/11/29 09:35:24;;;;;;;24.45;15.75;;;-2.60;95.40;;;;;;5111980;28;20454;-83
2023/11/29 09:37:50;;;;;;;25.27;14.25;;;-2.50;95.30;;;;;;5112153;28;20071;-83
2023/11/29 09:40:16;;;;;;;23.60;14.35;;;-2.40;95.20;;;;;;5112022;28;20020;-82
2023/11/29 09:42:43;;;;;;;23.13;14.40;;;-2.40;95.00;;;;;;5115929;28;20023;-82
2023/11/29 09:45:17;;;;;;;24.85;14.82;;;-2.40;95.00;;;;;;5117326;28;20048;-81
2023/11/29 09:47:44;;;;;;;28.42;15.73;;;-2.50;94.90;;;;;;5123267;28;20043;-82
2023/11/29 09:50:10;;;;;;;25.67;15.25;;;-2.50;95.00;;;;;;5118586;28;20023;-81
2023/11/29 09:52:36;;;;;;;21.17;14.57;;;-2.50;95.00;;;;;;5096276;28;20036;-81
2023/11/29 09:55:03;;;;;;;35.17;19.52;;;-2.60;95.00;;;;;;5097970;28;20020;-82
2023/11/29 09:57:29;;;;;;;30.10;15.97;;;-2.50;95.20;;;;;;5116854;28;20027;-82
2023/11/29 09:59:55;;;;;;;26.10;14.05;;;-2.40;95.30;;;;;;5101482;28;20030;-82
2023/11/29 10:02:22;;;;;;;26.10;17.00;;;-2.30;95.20;;;;;;5103604;28;20020;-82
2023/11/29 10:04:47;;;;;;;27.02;15.88;;;-2.40;95.20;;;;;;5107988;28;20351;-81
2023/11/29 10:07:14;;;;;;;22.10;15.13;;;-2.30;95.30;;;;;;5103572;28;20806;-81
2023/11/29 10:09:40;;;;;;;28.08;18.10;;;-2.30;95.40;;;;;;5117514;28;20023;-81
2023/11/29 10:12:08;;;;;;;25.98;17.55;;;-2.30;95.60;;;;;;5098014;28;20031;-82
2023/11/29 10:14:41;;;;;;;26.02;16.23;;;-2.30;95.60;;;;;;5101926;28;20084;-81
2023/11/29 10:17:13;;;;;;;26.42;15.95;;;-2.20;95.80;;;;;;5116138;28;20011;-82
2023/11/29 10:19:40;;;;;;;27.73;17.35;;;-2.20;95.80;;;;;;5117804;28;20047;-80
2023/11/29 10:22:06;;;;;;;24.80;15.77;;;-2.10;96.00;;;;;;5119665;28;20016;-82
2023/11/29 10:24:32;;;;;;;27.60;16.80;;;-2.00;96.00;;;;;;5118143;28;20481;-82
2023/11/29 10:26:58;;;;;;;28.90;16.50;;;-2.00;96.10;;;;;;5120327;28;20032;-82
2023/11/29 10:29:24;;;;;;;29.98;16.65;;;-2.00;96.10;;;;;;5120098;28;20457;-83
2023/11/29 10:31:52;;;;;;;26.55;16.55;;;-2.10;96.20;;;;;;5129758;28;20045;-81
2023/11/29 10:34:19;;;;;;;25.30;17.73;;;-2.20;96.30;;;;;;5121304;28;20030;-82
2023/11/29 10:36:46;;;;;;;21.42;14.23;;;-2.30;96.70;;;;;;5130112;28;20031;-80
2023/11/29 10:39:16;;;;;;;;;;;-2.30;97.00;;;;;;5123991;28;20024;-80
2023/11/29 10:41:58;;;;;;;25.05;15.70;;;-2.30;97.10;;;;;;5115051;27;19904;-82
2023/11/29 10:44:34;;;;;;;22.38;17.17;;;-2.40;97.00;;;;;;5096543;28;20144;-82
2023/11/29 10:47:09;;;;;;;21.50;13.75;;;-2.50;97.20;;;;;;5114894;28;20027;-80
2023/11/29 10:49:42;;;;;;;31.15;17.20;;;-2.50;97.50;;;;;;5114823;28;20007;-82
2023/11/29 10:52:08;;;;;;;26.67;16.33;;;-2.60;97.50;;;;;;5114657;28;20156;-82
2023/11/29 10:54:35;;;;;;;27.30;16.48;;;-2.70;97.80;;;;;;5115093;28;20024;-82
2023/11/29 10:57:02;;;;;;;26.80;15.38;;;-2.70;98.10;;;;;;5114509;28;20098;-83
2023/11/29 10:59:33;;;;;;;22.17;14.95;;;-2.60;98.30;;;;;;5113468;28;20543;-82
2023/11/29 11:01:59;;;;;;;22.05;14.02;;;-2.60;98.30;;;;;;5114556;28;20030;-83
2023/11/29 11:04:33;;;;;;;18.73;13.87;;;-2.60;98.20;;;;;;5114435;28;20028;-82
2023/11/29 11:07:02;;;;;;;27.20;16.88;;;-2.70;98.20;;;;;;5113585;28;20263;-82
2023/11/29 11:09:30;;;;;;;27.55;16.65;;;-2.70;98.50;;;;;;5113777;28;20122;-80
2023/11/29 11:11:58;;;;;;;25.08;15.50;;;-2.60;98.70;;;;;;5114415;28;20031;-81
2023/11/29 11:14:48;;;;;;;26.67;17.13;;;-2.40;98.80;;;;;;5113396;28;20027;-82
2023/11/29 11:17:18;;;;;;;28.27;14.90;;;-2.30;98.50;;;;;;5103186;28;20024;-82
2023/11/29 11:19:45;;;;;;;28.98;17.13;;;-2.40;98.30;;;;;;5114452;28;20046;-81
2023/11/29 11:22:25;;;;;;;27.80;15.48;;;-2.30;98.40;;;;;;5095583;28;20115;-82
2023/11/29 11:25:04;;;;;;;22.75;16.08;;;-2.40;98.30;;;;;;5114588;28;20027;-83
2023/11/29 11:27:31;;;;;;;21.98;14.48;;;-2.40;98.20;;;;;;5113992;28;20099;-82
2023/11/29 11:29:57;;;;;;;24.25;15.88;;;-2.40;98.30;;;;;;5114017;28;20446;-83
2023/11/29 11:32:39;;;;;;;26.83;15.38;;;-2.30;98.40;;;;;;5114024;28;20027;-82
2023/11/29 11:35:18;;;;;;;23.38;14.73;;;-2.20;98.40;;;;;;5115050;28;20046;-83
2023/11/29 11:38:06;;;;;;;23.98;13.88;;;-2.20;98.20;;;;;;5113674;28;20032;-81
2023/11/29 11:40:33;;;;;;;23.27;14.75;;;-2.10;98.20;;;;;;5094778;28;20027;-85
2023/11/29 11:43:00;;;;;;;29.80;16.73;;;-2.10;98.10;;;;;;5100939;28;20038;-82
2023/11/29 11:45:33;;;;;;;23.70;15.32;;;-2.00;97.90;;;;;;5113933;28;20035;-83
2023/11/29 11:48:04;;;;;;;26.02;15.38;;;-2.10;97.70;;;;;;5112959;28;20027;-81
2023/11/29 11:50:30;;;;;;;24.75;15.98;;;-2.10;97.70;;;;;;5113553;27;20121;-81
2023/11/29 11:53:03;;;;;;;24.10;14.57;;;-2.10;97.80;;;;;;5112908;28;20135;-82
2023/11/29 11:55:30;;;;;;;25.38;15.75;;;-2.00;97.70;;;;;;5115448;28;20095;-82
2023/11/29 11:57:59;;;;;;;25.58;14.82;;;-2.10;97.30;;;;;;5119213;28;20525;-82
2023/11/29 12:00:26;;;;;;;28.70;15.05;;;-2.10;97.60;;;;;;5120028;28;20079;-83
2023/11/29 12:02:52;;;;;;;23.55;13.73;;;-2.10;97.50;;;;;;5118875;28;20114;-82
2023/11/29 12:05:18;;;;;;;22.00;15.07;;;-2.10;97.40;;;;;;5108914;28;20004;-82
2023/11/29 12:07:44;;;;;;;21.80;14.07;;;-2.00;97.60;;;;;;5111960;28;20028;-83
2023/11/29 12:10:12;;;;;;;21.83;12.68;;;-1.90;97.50;;;;;;5112716;28;20020;-81
2023/11/29 12:12:39;;;;;;;33.55;17.33;;;-1.90;97.50;;;;;;5112870;28;20020;-82
2023/11/29 12:15:06;;;;;;;22.52;15.75;;;-1.80;97.50;;;;;;5113143;28;20024;-82
2023/11/29 12:17:34;;;;;;;25.70;15.77;;;-1.80;97.30;;;;;;5112978;28;20380;-83
2023/11/29 12:20:01;;;;;;;20.60;12.50;;;-1.80;97.10;;;;;;5113312;28;20055;-83
2023/11/29 12:22:27;;;;;;;23.92;14.05;;;-1.80;97.00;;;;;;5112239;28;20107;-82
2023/11/29 12:24:55;;;;;;;23.10;13.25;;;-1.80;97.10;;;;;;5112823;28;20019;-83
2023/11/29 12:27:27;;;;;;;20.48;13.48;;;-1.80;97.20;;;;;;5094586;28;20430;-81
2023/11/29 12:29:59;;;;;;;19.13;11.48;;;-1.70;97.20;;;;;;5113707;28;20028;-81
2023/11/29 12:32:28;;;;;;;17.92;11.45;;;-1.70;97.20;;;;;;5112970;28;20103;-82